Time,TemperatureF,DewpointF,PressureIn,WindDirection,WindDirectionDegrees,WindSpeedMPH,WindSpeedGustMPH,Humidity,HourlyPrecipIn,Conditions,Clouds,dailyrainin,SoftwareType,DateUTC
2013-03-19 00:00:00,31.2,24.8,29.84,SSW,205,14.0,14.0,77,0.00,,,0.03,Wunderground v.1.15,2013-03-19 04:00:00,
2013-03-19 00:02:00,31.0,24.6,29.84,SW,222,14.0,14.0,77,0.00,,,0.00,Wunderground v.1.15,2013-03-19 04:02:00,
2013-03-19 00:05:00,30.8,24.4,29.84,WSW,253,14.0,22.0,77,0.00,,,0.00,Wunderground v.1.15,2013-03-19 04:05:00,
2013-03-19 00:06:00,30.7,24.0,29.84,WSW,238,14.0,22.0,76,0.00,,,0.00,Wunderground v.1.15,2013-03-19 04:06:00,
2013-03-19 00:12:00,30.3,23.3,29.84,West,274,15.0,15.0,75,0.00,,,0.00,Wunderground v.1.15,2013-03-19 04:12:00,
2013-03-19 00:17:00,30.0,23.4,29.84,NW,307,14.0,17.0,76,0.00,,,0.00,Wunderground v.1.15,2013-03-19 04:17:00,
2013-03-19 00:23:00,29.5,22.2,29.85,ENE,77,13.0,17.0,74,0.00,,,0.00,Wunderground v.1.15,2013-03-19 04:23:00,
2013-03-19 00:29:00,29.0,21.7,29.85,West,280,14.0,19.0,74,0.00,,,0.00,Wunderground v.1.15,2013-03-19 04:29:00,
2013-03-19 00:34:00,28.6,21.4,29.85,SSW,212,14.0,33.0,74,0.00,,,0.00,Wunderground v.1.15,2013-03-19 04:34:00,
2013-03-19 00:40:00,28.3,21.4,29.86,SE,136,14.0,14.0,75,0.00,,,0.00,Wunderground v.1.15,2013-03-19 04:40:00,
2013-03-19 00:46:00,28.1,21.5,29.86,NNE,21,15.0,33.0,76,0.00,,,0.00,Wunderground v.1.15,2013-03-19 04:46:00,
2013-03-19 00:52:00,27.9,21.3,29.86,West,276,14.0,33.0,76,0.00,,,0.00,Wunderground v.1.15,2013-03-19 04:52:00,
2013-03-19 00:57:00,27.8,20.9,29.85,West,263,14.0,33.0,75,0.00,,,0.00,Wunderground v.1.15,2013-03-19 04:57:00,
2013-03-19 01:02:00,27.7,20.2,29.86,NW,325,15.0,17.0,73,0.00,,,0.00,Wunderground v.1.15,2013-03-19 05:02:00,
2013-03-19 01:08:00,27.4,20.2,29.86,SE,133,16.0,33.0,74,0.00,,,0.00,Wunderground v.1.15,2013-03-19 05:08:00,
2013-03-19 01:14:00,27.1,19.3,29.86,NW,312,15.0,21.0,72,0.00,,,0.00,Wunderground v.1.15,2013-03-19 05:14:00,
2013-03-19 01:20:00,27.0,19.2,29.86,SSW,204,18.0,18.0,72,0.00,,,0.00,Wunderground v.1.15,2013-03-19 05:20:00,
2013-03-19 01:27:00,26.7,19.5,29.86,WSW,257,17.0,21.0,74,0.00,,,0.00,Wunderground v.1.15,2013-03-19 05:27:00,
2013-03-19 01:33:00,26.4,18.6,29.86,WSW,240,14.0,34.0,72,0.00,,,0.00,Wunderground v.1.15,2013-03-19 05:33:00,
2013-03-19 01:39:00,26.1,19.3,29.86,WSW,246,14.0,34.0,75,0.00,,,0.00,Wunderground v.1.15,2013-03-19 05:39:00,
2013-03-19 01:45:00,25.8,19.3,29.86,West,276,13.0,34.0,76,0.00,,,0.00,Wunderground v.1.15,2013-03-19 05:45:00,
2013-03-19 01:52:00,25.7,18.9,29.86,WSW,247,13.0,34.0,75,0.00,,,0.00,Wunderground v.1.15,2013-03-19 05:52:00,
2013-03-19 01:58:00,25.6,18.8,29.86,SW,233,14.0,34.0,75,0.00,,,0.00,Wunderground v.1.15,2013-03-19 05:58:00,
2013-03-19 02:04:00,25.7,19.2,29.86,SW,224,14.0,21.0,76,0.00,,,0.00,Wunderground v.1.15,2013-03-19 06:04:00,
2013-03-19 02:09:00,25.8,19.3,29.86,SW,215,14.0,21.0,76,0.00,,,0.00,Wunderground v.1.15,2013-03-19 06:09:00,
2013-03-19 02:15:00,25.8,19.3,29.86,WSW,255,13.0,19.0,76,0.00,,,0.00,Wunderground v.1.15,2013-03-19 06:15:00,
2013-03-19 02:22:00,25.9,19.7,29.87,WSW,240,13.0,17.0,77,0.00,,,0.00,Wunderground v.1.15,2013-03-19 06:22:00,
2013-03-19 02:28:00,25.9,20.3,29.86,SW,225,12.0,17.0,79,0.00,,,0.00,Wunderground v.1.15,2013-03-19 06:28:00,
2013-03-19 02:34:00,25.8,19.9,29.87,WSW,245,12.0,43.0,78,0.00,,,0.00,Wunderground v.1.15,2013-03-19 06:34:00,
2013-03-19 02:39:00,25.8,20.2,29.88,North,349,12.0,43.0,79,0.00,,,0.00,Wunderground v.1.15,2013-03-19 06:39:00,
2013-03-19 02:45:00,25.7,19.8,29.88,WSW,258,11.0,43.0,78,0.00,,,0.00,Wunderground v.1.15,2013-03-19 06:45:00,
2013-03-19 02:52:00,25.5,20.2,29.89,WNW,289,12.0,43.0,80,0.00,,,0.00,Wunderground v.1.15,2013-03-19 06:52:00,
2013-03-19 02:58:00,25.4,20.1,29.89,NNE,23,13.0,43.0,80,0.00,,,0.00,Wunderground v.1.15,2013-03-19 06:58:00,
2013-03-19 03:04:00,25.3,20.3,29.89,SW,221,14.0,21.0,81,0.00,,,0.00,Wunderground v.1.15,2013-03-19 07:04:00,
2013-03-19 03:09:00,25.3,20.3,29.89,East,101,12.0,21.0,81,0.00,,,0.00,Wunderground v.1.15,2013-03-19 07:09:00,
2013-03-19 03:15:00,25.0,19.4,29.89,West,279,12.0,21.0,79,0.00,,,0.00,Wunderground v.1.15,2013-03-19 07:15:00,
2013-03-19 03:22:00,24.7,18.8,29.89,SE,128,12.0,18.0,78,0.00,,,0.00,Wunderground v.1.15,2013-03-19 07:22:00,
2013-03-19 03:28:00,24.4,17.6,29.90,SSE,165,13.0,25.0,75,0.00,,,0.00,Wunderground v.1.15,2013-03-19 07:28:00,
2013-03-19 03:34:00,24.3,17.5,29.90,North,11,12.0,29.0,75,0.00,,,0.00,Wunderground v.1.15,2013-03-19 07:34:00,
2013-03-19 03:40:00,24.2,17.4,29.89,SE,127,13.0,13.0,75,0.00,,,0.00,Wunderground v.1.15,2013-03-19 07:40:00,
2013-03-19 03:46:00,24.2,18.0,29.90,South,179,12.0,29.0,77,0.00,,,0.00,Wunderground v.1.15,2013-03-19 07:46:00,
2013-03-19 03:52:00,24.0,18.4,29.90,SW,225,14.0,29.0,79,0.00,,,0.00,Wunderground v.1.15,2013-03-19 07:52:00,
2013-03-19 03:58:00,23.9,18.0,29.89,SSE,163,14.0,29.0,78,0.00,,,0.00,Wunderground v.1.15,2013-03-19 07:58:00,
2013-03-19 04:04:00,23.8,16.7,29.90,SSW,205,14.0,24.0,74,0.00,,,0.00,Wunderground v.1.15,2013-03-19 08:04:00,
2013-03-19 04:10:00,23.7,16.0,29.90,SW,235,15.0,15.0,72,0.00,,,0.00,Wunderground v.1.15,2013-03-19 08:10:00,
2013-03-19 04:17:00,23.6,16.2,29.90,ESE,123,14.0,19.0,73,0.00,,,0.00,Wunderground v.1.15,2013-03-19 08:17:00,
2013-03-19 04:23:00,23.4,15.4,29.90,SE,128,12.0,14.0,71,0.00,,,0.00,Wunderground v.1.15,2013-03-19 08:23:00,
2013-03-19 04:29:00,23.3,15.3,29.91,SW,229,12.0,18.0,71,0.00,,,0.00,Wunderground v.1.15,2013-03-19 08:29:00,
2013-03-19 04:35:00,23.3,15.3,29.90,SW,215,12.0,30.0,71,0.00,,,0.00,Wunderground v.1.15,2013-03-19 08:35:00,
2013-03-19 04:40:00,23.3,15.9,29.90,ESE,113,11.0,30.0,73,0.00,,,0.00,Wunderground v.1.15,2013-03-19 08:40:00,
2013-03-19 04:47:00,23.4,16.3,29.90,West,281,11.0,30.0,74,0.00,,,0.00,Wunderground v.1.15,2013-03-19 08:47:00,
2013-03-19 04:52:00,23.4,16.6,29.90,SW,226,13.0,30.0,75,0.00,,,0.00,Wunderground v.1.15,2013-03-19 08:52:00,
2013-03-19 04:58:00,23.4,16.9,29.90,SW,219,12.0,30.0,76,0.00,,,0.00,Wunderground v.1.15,2013-03-19 08:58:00,
2013-03-19 05:04:00,23.5,17.0,29.90,SW,226,10.0,16.0,76,0.00,,,0.00,Wunderground v.1.15,2013-03-19 09:04:00,
2013-03-19 05:10:00,23.5,16.4,29.90,SW,224,15.0,18.0,74,0.00,,,0.00,Wunderground v.1.15,2013-03-19 09:10:00,
2013-03-19 05:16:00,23.5,16.7,29.90,SW,214,13.0,18.0,75,0.00,,,0.00,Wunderground v.1.15,2013-03-19 09:16:00,
2013-03-19 05:22:00,23.5,16.4,29.91,SSW,200,12.0,13.0,74,0.00,,,0.00,Wunderground v.1.15,2013-03-19 09:22:00,
2013-03-19 05:28:00,23.5,16.1,29.91,SSW,210,13.0,15.0,73,0.00,,,0.00,Wunderground v.1.15,2013-03-19 09:28:00,
2013-03-19 05:34:00,23.5,16.1,29.92,NW,310,13.0,32.0,73,0.00,,,0.00,Wunderground v.1.15,2013-03-19 09:34:00,
2013-03-19 05:40:00,23.3,14.6,29.93,West,263,16.0,16.0,69,0.00,,,0.00,Wunderground v.1.15,2013-03-19 09:40:00,
2013-03-19 05:46:00,23.1,15.1,29.92,West,262,18.0,32.0,71,0.00,,,0.00,Wunderground v.1.15,2013-03-19 09:46:00,
2013-03-19 05:52:00,22.9,15.5,29.92,SW,217,16.0,32.0,73,0.00,,,0.00,Wunderground v.1.15,2013-03-19 09:52:00,
2013-03-19 05:57:00,22.7,15.0,29.93,SW,228,16.0,32.0,72,0.00,,,0.00,Wunderground v.1.15,2013-03-19 09:57:00,
2013-03-19 06:03:00,22.6,15.2,29.93,South,172,16.0,22.0,73,0.00,,,0.00,Wunderground v.1.15,2013-03-19 10:03:00,
2013-03-19 06:09:00,22.5,15.5,29.92,SW,235,13.0,22.0,74,0.00,,,0.00,Wunderground v.1.15,2013-03-19 10:09:00,
2013-03-19 06:14:00,22.4,15.1,29.93,East,96,13.0,14.0,73,0.00,,,0.00,Wunderground v.1.15,2013-03-19 10:14:00,
2013-03-19 06:20:00,22.3,14.6,29.93,WNW,288,13.0,13.0,72,0.00,,,0.00,Wunderground v.1.15,2013-03-19 10:20:00,
2013-03-19 06:25:00,22.2,15.2,29.93,South,172,12.0,13.0,74,0.00,,,0.00,Wunderground v.1.15,2013-03-19 10:25:00,
2013-03-19 06:31:00,22.2,15.8,29.93,WSW,243,10.0,30.0,76,0.00,,,0.00,Wunderground v.1.15,2013-03-19 10:31:00,
2013-03-19 06:37:00,22.2,15.5,29.93,WSW,240,11.0,30.0,75,0.00,,,0.00,Wunderground v.1.15,2013-03-19 10:37:00,
2013-03-19 06:42:00,22.3,15.6,29.93,WSW,255,14.0,30.0,75,0.00,,,0.00,Wunderground v.1.15,2013-03-19 10:42:00,
2013-03-19 06:47:00,22.4,15.4,29.93,South,179,16.0,30.0,74,0.00,,,0.00,Wunderground v.1.15,2013-03-19 10:47:00,
2013-03-19 06:53:00,22.3,15.6,29.93,South,191,14.0,30.0,75,0.00,,,0.00,Wunderground v.1.15,2013-03-19 10:53:00,
2013-03-19 06:58:00,22.3,15.6,29.93,West,271,14.0,30.0,75,0.00,,,0.00,Wunderground v.1.15,2013-03-19 10:58:00,
2013-03-19 07:04:00,22.3,15.9,29.93,SSW,202,13.0,17.0,76,0.00,,,0.00,Wunderground v.1.15,2013-03-19 11:04:00,
2013-03-19 07:09:00,22.4,16.0,29.93,NNW,330,12.0,20.0,76,0.00,,,0.00,Wunderground v.1.15,2013-03-19 11:09:00,
2013-03-19 07:15:00,22.4,15.7,29.94,WSW,238,13.0,19.0,75,0.00,,,0.00,Wunderground v.1.15,2013-03-19 11:15:00,
2013-03-19 07:21:00,22.4,15.4,29.94,SSE,162,13.0,26.0,74,0.00,,,0.00,Wunderground v.1.15,2013-03-19 11:21:00,
2013-03-19 07:26:00,22.3,15.3,29.94,SW,222,12.0,26.0,74,0.00,,,0.00,Wunderground v.1.15,2013-03-19 11:26:00,
2013-03-19 07:32:00,22.2,15.5,29.94,NW,312,12.0,31.0,75,0.00,,,0.00,Wunderground v.1.15,2013-03-19 11:32:00,
2013-03-19 07:38:00,22.2,15.8,29.93,SW,215,12.0,31.0,76,0.00,,,0.00,Wunderground v.1.15,2013-03-19 11:38:00,
2013-03-19 07:44:00,22.1,15.4,29.93,SW,224,12.0,31.0,75,0.00,,,0.00,Wunderground v.1.15,2013-03-19 11:44:00,
2013-03-19 07:49:00,22.0,15.0,29.94,West,262,14.0,31.0,74,0.00,,,0.00,Wunderground v.1.15,2013-03-19 11:49:00,
2013-03-19 07:55:00,22.0,15.3,29.94,WSW,250,14.0,31.0,75,0.00,,,0.00,Wunderground v.1.15,2013-03-19 11:55:00,
2013-03-19 08:00:00,22.0,15.3,29.94,WNW,296,13.0,13.0,75,0.00,,,0.00,Wunderground v.1.15,2013-03-19 12:00:00,
2013-03-19 08:07:00,22.0,15.0,29.94,SW,217,12.0,16.0,74,0.00,,,0.00,Wunderground v.1.15,2013-03-19 12:07:00,
2013-03-19 08:13:00,22.1,15.4,29.94,SW,224,13.0,14.0,75,0.00,,,0.00,Wunderground v.1.15,2013-03-19 12:13:00,
2013-03-19 08:19:00,22.3,15.6,29.94,WSW,253,13.0,20.0,75,0.00,,,0.00,Wunderground v.1.15,2013-03-19 12:19:00,
2013-03-19 08:24:00,22.4,16.0,29.94,South,186,14.0,16.0,76,0.00,,,0.00,Wunderground v.1.15,2013-03-19 12:24:00,
2013-03-19 08:30:00,22.6,16.2,29.94,SW,235,13.0,13.0,76,0.00,,,0.00,Wunderground v.1.15,2013-03-19 12:30:00,
2013-03-19 08:35:00,22.6,16.5,29.94,WNW,290,14.0,30.0,77,0.00,,,0.00,Wunderground v.1.15,2013-03-19 12:35:00,
2013-03-19 08:41:00,22.7,16.6,29.94,South,190,14.0,30.0,77,0.00,,,0.00,Wunderground v.1.15,2013-03-19 12:41:00,
2013-03-19 08:46:00,22.5,15.8,29.94,West,259,12.0,30.0,75,0.00,,,0.00,Wunderground v.1.15,2013-03-19 12:46:00,
2013-03-19 08:52:00,22.5,15.8,29.94,South,174,12.0,30.0,75,0.00,,,0.00,Wunderground v.1.15,2013-03-19 12:52:00,
2013-03-19 08:58:00,22.3,15.3,29.94,WSW,243,13.0,30.0,74,0.00,,,0.00,Wunderground v.1.15,2013-03-19 12:58:00,
2013-03-19 09:04:00,22.4,15.7,29.94,NE,37,13.0,21.0,75,0.00,,,0.00,Wunderground v.1.15,2013-03-19 13:04:00,
2013-03-19 09:10:00,22.7,16.0,29.95,WSW,242,11.0,12.0,75,0.00,,,0.00,Wunderground v.1.15,2013-03-19 13:10:00,
2013-03-19 09:15:00,23.0,15.9,29.95,SW,235,12.0,16.0,74,0.00,,,0.00,Wunderground v.1.15,2013-03-19 13:15:00,
2013-03-19 09:22:00,23.5,16.1,29.95,SW,219,11.0,22.0,73,0.00,,,0.00,Wunderground v.1.15,2013-03-19 13:22:00,
2013-03-19 09:28:00,23.2,15.2,29.95,South,180,12.0,22.0,71,0.00,,,0.00,Wunderground v.1.15,2013-03-19 13:28:00,
2013-03-19 09:34:00,23.6,15.2,29.95,WSW,246,13.0,29.0,70,0.00,,,0.00,Wunderground v.1.15,2013-03-19 13:34:00,
2013-03-19 09:39:00,23.5,14.8,29.95,SW,221,12.0,29.0,69,0.00,,,0.00,Wunderground v.1.15,2013-03-19 13:39:00,
2013-03-19 09:45:00,23.5,14.1,29.96,SSW,195,12.0,29.0,67,0.00,,,0.00,Wunderground v.1.15,2013-03-19 13:45:00,
2013-03-19 09:52:00,23.9,14.9,29.95,SW,229,12.0,29.0,68,0.00,,,0.00,Wunderground v.1.15,2013-03-19 13:52:00,
2013-03-19 09:58:00,23.8,14.8,29.95,NW,326,14.0,29.0,68,0.00,,,0.00,Wunderground v.1.15,2013-03-19 13:58:00,
2013-03-19 10:04:00,23.7,14.3,29.95,WSW,238,16.0,20.0,67,0.00,,,0.00,Wunderground v.1.15,2013-03-19 14:04:00,
2013-03-19 10:10:00,23.9,14.5,29.96,West,266,17.0,18.0,67,0.00,,,0.00,Wunderground v.1.15,2013-03-19 14:10:00,
2013-03-19 10:16:00,24.6,15.2,29.96,WSW,258,14.0,18.0,67,0.00,,,0.00,Wunderground v.1.15,2013-03-19 14:16:00,
2013-03-19 10:21:00,24.5,14.4,29.97,South,183,14.0,14.0,65,0.00,,,0.00,Wunderground v.1.15,2013-03-19 14:21:00,
2013-03-19 10:27:00,24.0,13.9,29.97,West,280,15.0,21.0,65,0.00,,,0.00,Wunderground v.1.15,2013-03-19 14:27:00,
2013-03-19 10:32:00,24.1,13.3,29.97,WSW,252,16.0,27.0,63,0.00,,,0.00,Wunderground v.1.15,2013-03-19 14:32:00,
2013-03-19 10:38:00,24.2,13.4,29.97,SSW,195,19.0,31.0,63,0.00,,,0.00,Wunderground v.1.15,2013-03-19 14:38:00,
2013-03-19 10:43:00,24.2,13.0,29.98,ESE,117,17.0,27.0,62,0.00,,,0.00,Wunderground v.1.15,2013-03-19 14:43:00,
2013-03-19 10:48:00,24.1,12.6,29.98,SW,235,16.0,27.0,61,0.00,,,0.00,Wunderground v.1.15,2013-03-19 14:48:00,
2013-03-19 10:54:00,24.2,12.7,29.98,NE,56,17.0,27.0,61,0.00,,,0.00,Wunderground v.1.15,2013-03-19 14:54:00,
2013-03-19 11:00:00,24.8,15.0,29.98,West,280,15.0,15.0,66,0.00,,,0.00,Wunderground v.1.15,2013-03-19 15:00:00,
2013-03-19 11:06:00,25.0,14.9,29.98,SW,235,13.0,15.0,65,0.00,,,0.00,Wunderground v.1.15,2013-03-19 15:06:00,
2013-03-19 11:11:00,24.7,14.6,29.98,WNW,290,16.0,16.0,65,0.00,,,0.00,Wunderground v.1.15,2013-03-19 15:11:00,
2013-03-19 11:17:00,25.0,14.2,29.98,WSW,240,17.0,28.0,63,0.00,,,0.00,Wunderground v.1.15,2013-03-19 15:17:00,
2013-03-19 11:23:00,25.3,15.2,29.98,SW,222,17.0,24.0,65,0.00,,,0.00,Wunderground v.1.15,2013-03-19 15:23:00,
2013-03-19 11:29:00,25.5,16.1,29.98,North,9,16.0,24.0,67,0.00,,,0.00,Wunderground v.1.15,2013-03-19 15:29:00,
2013-03-19 11:35:00,25.1,14.3,29.98,WNW,284,18.0,35.0,63,0.00,,,0.00,Wunderground v.1.15,2013-03-19 15:35:00,
2013-03-19 11:41:00,25.0,14.5,29.99,WSW,252,19.0,35.0,64,0.00,,,0.00,Wunderground v.1.15,2013-03-19 15:41:00,
2013-03-19 11:47:00,25.2,14.4,29.99,WNW,290,18.0,35.0,63,0.00,,,0.00,Wunderground v.1.15,2013-03-19 15:47:00,
2013-03-19 11:53:00,25.5,13.9,29.99,SW,229,14.0,35.0,61,0.00,,,0.00,Wunderground v.1.15,2013-03-19 15:53:00,
2013-03-19 11:59:00,26.1,14.5,29.99,SW,229,14.0,35.0,61,0.00,,,0.00,Wunderground v.1.15,2013-03-19 15:59:00,
2013-03-19 12:04:00,26.4,16.2,29.99,WSW,238,14.0,19.0,65,0.00,,,0.00,Wunderground v.1.15,2013-03-19 16:04:00,
2013-03-19 12:09:00,26.6,16.1,30.00,SW,224,15.0,20.0,64,0.00,,,0.00,Wunderground v.1.15,2013-03-19 16:09:00,
2013-03-19 12:15:00,26.6,16.4,30.00,SSW,207,15.0,30.0,65,0.00,,,0.00,Wunderground v.1.15,2013-03-19 16:15:00,
2013-03-19 12:20:00,26.9,17.0,30.00,SSW,204,13.0,15.0,66,0.00,,,0.00,Wunderground v.1.15,2013-03-19 16:20:00,
2013-03-19 12:26:00,26.4,15.1,30.00,WSW,249,16.0,25.0,62,0.00,,,0.00,Wunderground v.1.15,2013-03-19 16:26:00,
2013-03-19 12:32:00,26.6,16.1,30.01,SW,215,18.0,37.0,64,0.00,,,0.00,Wunderground v.1.15,2013-03-19 16:32:00,
2013-03-19 12:38:00,26.7,16.1,30.01,NNE,18,17.0,37.0,64,0.00,,,0.00,Wunderground v.1.15,2013-03-19 16:38:00,
2013-03-19 12:44:00,26.7,16.1,30.01,WNW,295,16.0,37.0,64,0.00,,,0.00,Wunderground v.1.15,2013-03-19 16:44:00,
2013-03-19 12:49:00,26.6,15.7,30.01,East,86,16.0,37.0,63,0.00,,,0.00,Wunderground v.1.15,2013-03-19 16:49:00,
2013-03-19 12:55:00,27.0,15.7,30.01,WNW,286,17.0,37.0,62,0.00,,,0.00,Wunderground v.1.15,2013-03-19 16:55:00,
2013-03-19 13:00:00,27.5,16.2,30.01,SW,224,17.0,21.0,62,0.00,,,0.00,Wunderground v.1.15,2013-03-19 17:00:00,
2013-03-19 13:06:00,28.1,17.8,30.01,SSE,155,15.0,26.0,65,0.00,,,0.00,Wunderground v.1.15,2013-03-19 17:06:00,
2013-03-19 13:12:00,28.0,17.0,30.01,West,276,16.0,25.0,63,0.00,,,0.00,Wunderground v.1.15,2013-03-19 17:12:00,
2013-03-19 13:18:00,28.3,17.3,30.02,WSW,246,17.0,28.0,63,0.00,,,0.00,Wunderground v.1.15,2013-03-19 17:18:00,
2013-03-19 13:23:00,28.9,18.2,30.02,WSW,238,15.0,20.0,64,0.00,,,0.00,Wunderground v.1.15,2013-03-19 17:23:00,
2013-03-19 13:29:00,29.2,18.2,30.02,ENE,74,16.0,22.0,63,0.00,,,0.00,Wunderground v.1.15,2013-03-19 17:29:00,
2013-03-19 13:34:00,29.0,18.0,30.02,SW,225,19.0,35.0,63,0.00,,,0.00,Wunderground v.1.15,2013-03-19 17:34:00,
2013-03-19 13:40:00,29.0,17.6,30.03,NW,304,18.0,35.0,62,0.00,,,0.00,Wunderground v.1.15,2013-03-19 17:40:00,
2013-03-19 13:47:00,29.4,18.7,30.03,WSW,253,15.0,35.0,64,0.00,,,0.00,Wunderground v.1.15,2013-03-19 17:47:00,
2013-03-19 13:53:00,29.1,17.7,30.03,East,97,18.0,35.0,62,0.00,,,0.00,Wunderground v.1.15,2013-03-19 17:53:00,
2013-03-19 13:58:00,29.6,18.2,30.04,East,82,17.0,35.0,62,0.00,,,0.00,Wunderground v.1.15,2013-03-19 17:58:00,
2013-03-19 14:04:00,29.5,18.1,30.04,SW,222,17.0,30.0,62,0.00,,,0.00,Wunderground v.1.15,2013-03-19 18:04:00,
2013-03-19 14:09:00,29.5,16.5,30.05,East,94,16.0,30.0,58,0.00,,,0.00,Wunderground v.1.15,2013-03-19 18:09:00,
2013-03-19 14:14:00,29.4,17.6,30.04,WSW,240,14.0,24.0,61,0.00,,,0.00,Wunderground v.1.15,2013-03-19 18:14:00,
2013-03-19 14:19:00,29.3,18.3,30.05,SE,138,15.0,24.0,63,0.00,,,0.00,Wunderground v.1.15,2013-03-19 18:19:00,
2013-03-19 14:25:00,29.9,18.8,30.04,SW,230,17.0,24.0,63,0.00,,,0.00,Wunderground v.1.15,2013-03-19 18:25:00,
2013-03-19 14:33:00,30.5,18.6,30.04,SSW,212,17.0,39.0,61,0.00,,,0.00,Wunderground v.1.15,2013-03-19 18:33:00,
2013-03-19 14:38:00,30.3,18.1,30.05,WNW,294,19.0,39.0,60,0.00,,,0.00,Wunderground v.1.15,2013-03-19 18:38:00,
2013-03-19 14:44:00,30.3,18.1,30.04,SW,226,18.0,39.0,60,0.00,,,0.00,Wunderground v.1.15,2013-03-19 18:44:00,
2013-03-19 14:50:00,30.2,18.0,30.05,SW,222,17.0,39.0,60,0.00,,,0.00,Wunderground v.1.15,2013-03-19 18:50:00,
2013-03-19 14:56:00,30.3,18.8,30.05,South,171,17.0,39.0,62,0.00,,,0.00,Wunderground v.1.15,2013-03-19 18:56:00,
2013-03-19 15:02:00,31.0,19.1,30.04,SW,221,17.0,35.0,61,0.00,,,0.00,Wunderground v.1.15,2013-03-19 19:02:00,
2013-03-19 15:07:00,31.4,19.9,30.04,South,187,17.0,35.0,62,0.00,,,0.00,Wunderground v.1.15,2013-03-19 19:07:00,
2013-03-19 15:13:00,31.4,18.3,30.04,NW,311,15.0,21.0,58,0.00,,,0.00,Wunderground v.1.15,2013-03-19 19:13:00,
2013-03-19 15:18:00,31.6,18.9,30.05,ENE,75,16.0,27.0,59,0.00,,,0.00,Wunderground v.1.15,2013-03-19 19:18:00,
2013-03-19 15:24:00,32.0,18.5,30.04,West,269,17.0,26.0,57,0.00,,,0.00,Wunderground v.1.15,2013-03-19 19:24:00,
2013-03-19 15:29:00,32.3,20.3,30.04,WSW,240,15.0,26.0,61,0.00,,,0.00,Wunderground v.1.15,2013-03-19 19:29:00,
2013-03-19 15:34:00,32.6,19.8,30.05,SW,222,15.0,35.0,59,0.00,,,0.00,Wunderground v.1.15,2013-03-19 19:34:00,
2013-03-19 15:40:00,32.4,19.3,30.04,South,181,16.0,16.0,58,0.00,,,0.00,Wunderground v.1.15,2013-03-19 19:40:00,
2013-03-19 15:47:00,32.5,20.1,30.04,SW,232,16.0,35.0,60,0.00,,,0.00,Wunderground v.1.15,2013-03-19 19:47:00,
2013-03-19 15:52:00,32.7,19.9,30.05,WSW,250,17.0,35.0,59,0.00,,,0.00,Wunderground v.1.15,2013-03-19 19:52:00,
2013-03-19 15:58:00,32.6,19.0,30.05,South,186,18.0,35.0,57,0.00,,,0.00,Wunderground v.1.15,2013-03-19 19:58:00,
2013-03-19 16:03:00,32.6,19.4,30.05,NW,307,18.0,29.0,58,0.00,,,0.00,Wunderground v.1.15,2013-03-19 20:03:00,
2013-03-19 16:09:00,33.1,20.3,30.04,SW,215,17.0,29.0,59,0.00,,,0.00,Wunderground v.1.15,2013-03-19 20:09:00,
2013-03-19 16:14:00,33.3,20.9,30.05,SSW,212,17.0,29.0,60,0.00,,,0.00,Wunderground v.1.15,2013-03-19 20:14:00,
2013-03-19 16:20:00,33.9,20.3,30.05,NW,309,16.0,17.0,57,0.00,,,0.00,Wunderground v.1.15,2013-03-19 20:20:00,
2013-03-19 16:27:00,34.0,19.9,30.06,WSW,238,15.0,25.0,56,0.00,,,0.00,Wunderground v.1.15,2013-03-19 20:27:00,
2013-03-19 16:33:00,34.0,20.8,30.05,SSW,203,17.0,38.0,58,0.00,,,0.00,Wunderground v.1.15,2013-03-19 20:33:00,
2013-03-19 16:38:00,34.0,19.5,30.05,SW,215,18.0,38.0,55,0.00,,,0.00,Wunderground v.1.15,2013-03-19 20:38:00,
2013-03-19 16:44:00,34.3,20.2,30.06,NW,312,16.0,38.0,56,0.00,,,0.00,Wunderground v.1.15,2013-03-19 20:44:00,
2013-03-19 16:50:00,34.4,19.5,30.05,SW,233,16.0,16.0,54,0.00,,,0.00,Wunderground v.1.15,2013-03-19 20:50:00,
2013-03-19 16:56:00,34.6,20.1,30.06,West,262,18.0,38.0,55,0.00,,,0.00,Wunderground v.1.15,2013-03-19 20:56:00,
2013-03-19 17:02:00,35.1,21.4,30.06,West,280,16.0,18.0,57,0.00,,,0.00,Wunderground v.1.15,2013-03-19 21:02:00,
2013-03-19 17:08:00,35.2,20.2,30.06,SW,215,15.0,21.0,54,0.00,,,0.00,Wunderground v.1.15,2013-03-19 21:08:00,
2013-03-19 17:14:00,35.2,21.1,30.06,NW,308,14.0,25.0,56,0.00,,,0.00,Wunderground v.1.15,2013-03-19 21:14:00,
2013-03-19 17:19:00,35.2,18.4,30.06,West,270,15.0,25.0,50,0.00,,,0.00,Wunderground v.1.15,2013-03-19 21:19:00,
2013-03-19 17:25:00,35.5,19.6,30.06,WSW,250,13.0,18.0,52,0.00,,,0.00,Wunderground v.1.15,2013-03-19 21:25:00,
2013-03-19 17:30:00,35.5,19.1,30.06,West,264,13.0,22.0,51,0.00,,,0.00,Wunderground v.1.15,2013-03-19 21:30:00,
2013-03-19 17:36:00,35.3,18.5,30.06,WSW,258,15.0,36.0,50,0.00,,,0.00,Wunderground v.1.15,2013-03-19 21:36:00,
2013-03-19 17:42:00,35.5,20.0,30.06,SW,232,13.0,36.0,53,0.00,,,0.00,Wunderground v.1.15,2013-03-19 21:42:00,
2013-03-19 17:47:00,35.6,20.1,30.06,WSW,247,14.0,36.0,53,0.00,,,0.00,Wunderground v.1.15,2013-03-19 21:47:00,
2013-03-19 17:52:00,35.9,19.5,30.07,WSW,248,14.0,36.0,51,0.00,,,0.00,Wunderground v.1.15,2013-03-19 21:52:00,
2013-03-19 17:58:00,35.7,17.9,30.06,WNW,300,14.0,36.0,48,0.00,,,0.00,Wunderground v.1.15,2013-03-19 21:58:00,
2013-03-19 18:03:00,35.6,17.8,30.07,West,280,13.0,20.0,48,0.00,,,0.00,Wunderground v.1.15,2013-03-19 22:03:00,
2013-03-19 18:08:00,35.6,19.7,30.07,SW,221,13.0,22.0,52,0.00,,,0.00,Wunderground v.1.15,2013-03-19 22:08:00,
2013-03-19 18:13:00,36.0,20.9,30.07,NNW,347,13.0,14.0,54,0.00,,,0.00,Wunderground v.1.15,2013-03-19 22:13:00,
2013-03-19 18:19:00,36.1,20.2,30.07,ESE,122,12.0,14.0,52,0.00,,,0.00,Wunderground v.1.15,2013-03-19 22:19:00,
2013-03-19 18:25:00,36.0,18.7,30.08,NE,41,11.0,13.0,49,0.00,,,0.00,Wunderground v.1.15,2013-03-19 22:25:00,
2013-03-19 18:31:00,36.2,19.8,30.08,South,180,10.0,37.0,51,0.00,,,0.00,Wunderground v.1.15,2013-03-19 22:31:00,
2013-03-19 18:37:00,36.2,18.9,30.08,NW,316,11.0,37.0,49,0.00,,,0.00,Wunderground v.1.15,2013-03-19 22:37:00,
2013-03-19 18:43:00,36.0,19.6,30.08,NW,325,12.0,37.0,51,0.00,,,0.00,Wunderground v.1.15,2013-03-19 22:43:00,
2013-03-19 18:49:00,35.9,20.0,30.08,SW,226,12.0,37.0,52,0.00,,,0.00,Wunderground v.1.15,2013-03-19 22:49:00,
2013-03-19 18:55:00,35.8,19.0,30.08,NE,44,12.0,37.0,50,0.00,,,0.00,Wunderground v.1.15,2013-03-19 22:55:00,
2013-03-19 19:00:00,35.8,19.0,30.08,SSE,162,12.0,12.0,50,0.00,,,0.00,Wunderground v.1.15,2013-03-19 23:00:00,
2013-03-19 19:07:00,35.7,19.8,30.08,SSW,210,11.0,17.0,52,0.00,,,0.00,Wunderground v.1.15,2013-03-19 23:07:00,
2013-03-19 19:13:00,35.5,19.1,30.09,West,259,11.0,18.0,51,0.00,,,0.00,Wunderground v.1.15,2013-03-19 23:13:00,
2013-03-19 19:19:00,35.3,18.5,30.08,NW,317,12.0,18.0,50,0.00,,,0.00,Wunderground v.1.15,2013-03-19 23:19:00,
2013-03-19 19:25:00,35.1,18.3,30.08,WNW,293,10.0,15.0,50,0.00,,,0.00,Wunderground v.1.15,2013-03-19 23:25:00,
2013-03-19 19:30:00,34.9,18.6,30.09,West,262,9.0,13.0,51,0.00,,,0.00,Wunderground v.1.15,2013-03-19 23:30:00,
2013-03-19 19:37:00,34.7,19.7,30.09,WSW,253,10.0,26.0,54,0.00,,,0.00,Wunderground v.1.15,2013-03-19 23:37:00,
2013-03-19 19:42:00,34.5,19.1,30.09,ESE,115,11.0,26.0,53,0.00,,,0.00,Wunderground v.1.15,2013-03-19 23:42:00,
2013-03-19 19:47:00,34.3,18.5,30.09,North,350,11.0,26.0,52,0.00,,,0.00,Wunderground v.1.15,2013-03-19 23:47:00,
2013-03-19 19:53:00,33.9,18.1,30.09,ESE,122,10.0,26.0,52,0.00,,,0.00,Wunderground v.1.15,2013-03-19 23:53:00,
2013-03-19 19:58:00,33.5,18.6,30.09,South,181,9.0,26.0,54,0.00,,,0.00,Wunderground v.1.15,2013-03-19 23:58:00,
2013-03-19 20:03:00,33.3,18.4,30.09,South,172,9.0,15.0,54,0.00,,,0.00,Wunderground v.1.15,2013-03-20 00:03:00,
2013-03-19 20:09:00,33.3,18.9,30.09,South,189,11.0,15.0,55,0.00,,,0.00,Wunderground v.1.15,2013-03-20 00:09:00,
2013-03-19 20:15:00,33.2,19.2,30.09,SW,225,10.0,12.0,56,0.00,,,0.00,Wunderground v.1.15,2013-03-20 00:15:00,
2013-03-19 20:21:00,33.2,19.6,30.09,SSW,195,10.0,13.0,57,0.00,,,0.00,Wunderground v.1.15,2013-03-20 00:21:00,
2013-03-19 20:27:00,33.1,19.9,30.10,WSW,238,9.0,13.0,58,0.00,,,0.00,Wunderground v.1.15,2013-03-20 00:27:00,
2013-03-19 20:33:00,33.0,19.8,30.10,SSW,208,10.0,24.0,58,0.00,,,0.00,Wunderground v.1.15,2013-03-20 00:33:00,
2013-03-19 20:39:00,32.8,19.6,30.10,SW,225,9.0,24.0,58,0.00,,,0.00,Wunderground v.1.15,2013-03-20 00:39:00,
2013-03-19 20:44:00,32.9,19.3,30.10,SW,226,10.0,24.0,57,0.00,,,0.00,Wunderground v.1.15,2013-03-20 00:44:00,
2013-03-19 20:50:00,32.9,18.9,30.11,SE,140,11.0,11.0,56,0.00,,,0.00,Wunderground v.1.15,2013-03-20 00:50:00,
2013-03-19 20:57:00,32.8,19.2,30.11,WNW,284,10.0,24.0,57,0.00,,,0.00,Wunderground v.1.15,2013-03-20 00:57:00,
2013-03-19 21:02:00,32.7,19.1,30.11,SSW,200,9.0,20.0,57,0.00,,,0.00,Wunderground v.1.15,2013-03-20 01:02:00,
2013-03-19 21:08:00,32.5,19.3,30.11,West,276,9.0,20.0,58,0.00,,,0.00,Wunderground v.1.15,2013-03-20 01:08:00,
2013-03-19 21:13:00,32.6,19.4,30.11,South,183,10.0,14.0,58,0.00,,,0.00,Wunderground v.1.15,2013-03-20 01:13:00,
2013-03-19 21:19:00,32.4,19.7,30.12,NW,304,9.0,14.0,59,0.00,,,0.00,Wunderground v.1.15,2013-03-20 01:19:00,
2013-03-19 21:25:00,32.4,19.7,30.12,South,191,9.0,16.0,59,0.00,,,0.00,Wunderground v.1.15,2013-03-20 01:25:00,
2013-03-19 21:32:00,32.4,19.7,30.12,SE,128,10.0,25.0,59,0.00,,,0.00,Wunderground v.1.15,2013-03-20 01:32:00,
2013-03-19 21:38:00,32.2,19.9,30.12,WSW,245,9.0,25.0,60,0.00,,,0.00,Wunderground v.1.15,2013-03-20 01:38:00,
2013-03-19 21:43:00,32.1,19.8,30.12,WSW,243,9.0,25.0,60,0.00,,,0.00,Wunderground v.1.15,2013-03-20 01:43:00,
2013-03-19 21:49:00,31.9,19.6,30.12,NW,315,8.0,25.0,60,0.00,,,0.00,Wunderground v.1.15,2013-03-20 01:49:00,
2013-03-19 21:55:00,31.8,19.5,30.12,WNW,301,8.0,25.0,60,0.00,,,0.00,Wunderground v.1.15,2013-03-20 01:55:00,
2013-03-19 22:00:00,31.7,19.8,30.12,SSW,205,8.0,8.0,61,0.00,,,0.00,Wunderground v.1.15,2013-03-20 02:00:00,
2013-03-19 22:06:00,31.6,19.7,30.12,South,172,9.0,14.0,61,0.00,,,0.00,Wunderground v.1.15,2013-03-20 02:06:00,
2013-03-19 22:12:00,31.5,20.0,30.12,West,278,8.0,12.0,62,0.00,,,0.00,Wunderground v.1.15,2013-03-20 02:12:00,
2013-03-19 22:18:00,31.4,19.5,30.12,East,79,8.0,14.0,61,0.00,,,0.00,Wunderground v.1.15,2013-03-20 02:18:00,
2013-03-19 22:23:00,31.5,19.6,30.12,West,264,8.0,11.0,61,0.00,,,0.00,Wunderground v.1.15,2013-03-20 02:23:00,
2013-03-19 22:29:00,31.4,19.9,30.12,ENE,63,8.0,13.0,62,0.00,,,0.00,Wunderground v.1.15,2013-03-20 02:29:00,
2013-03-19 22:35:00,31.3,19.8,30.12,WSW,250,8.0,21.0,62,0.00,,,0.00,Wunderground v.1.15,2013-03-20 02:35:00,
2013-03-19 22:42:00,31.3,19.8,30.12,WSW,254,9.0,21.0,62,0.00,,,0.00,Wunderground v.1.15,2013-03-20 02:42:00,
2013-03-19 22:48:00,31.2,20.1,30.12,WNW,283,9.0,21.0,63,0.00,,,0.00,Wunderground v.1.15,2013-03-20 02:48:00,
2013-03-19 22:53:00,31.1,20.0,30.13,East,97,9.0,21.0,63,0.00,,,0.00,Wunderground v.1.15,2013-03-20 02:53:00,
2013-03-19 22:59:00,31.1,19.6,30.12,SW,219,9.0,21.0,62,0.00,,,0.00,Wunderground v.1.15,2013-03-20 02:59:00,
2013-03-19 23:05:00,31.1,19.6,30.12,SSW,200,10.0,15.0,62,0.00,,,0.00,Wunderground v.1.15,2013-03-20 03:05:00,
2013-03-19 23:11:00,31.0,19.5,30.12,NNW,329,10.0,13.0,62,0.00,,,0.00,Wunderground v.1.15,2013-03-20 03:11:00,
2013-03-19 23:17:00,30.9,19.4,30.12,NW,319,8.0,13.0,62,0.00,,,0.00,Wunderground v.1.15,2013-03-20 03:17:00,
2013-03-19 23:23:00,30.8,19.3,30.12,South,191,9.0,12.0,62,0.00,,,0.00,Wunderground v.1.15,2013-03-20 03:23:00,
2013-03-19 23:29:00,30.8,19.3,30.12,NW,314,10.0,22.0,62,0.00,,,0.00,Wunderground v.1.15,2013-03-20 03:29:00,
2013-03-19 23:34:00,30.7,18.8,30.12,SW,215,10.0,21.0,61,0.00,,,0.00,Wunderground v.1.15,2013-03-20 03:34:00,
2013-03-19 23:40:00,30.8,18.5,30.12,SE,134,10.0,10.0,60,0.00,,,0.00,Wunderground v.1.15,2013-03-20 03:40:00,
2013-03-19 23:46:00,30.6,18.3,30.12,SE,145,9.0,21.0,60,0.00,,,0.00,Wunderground v.1.15,2013-03-20 03:46:00,
2013-03-19 23:52:00,30.6,18.0,30.12,WNW,287,8.0,21.0,59,0.00,,,0.00,Wunderground v.1.15,2013-03-20 03:52:00,
2013-03-19 23:58:00,30.6,18.0,30.12,WNW,284,10.0,21.0,59,0.00,,,0.00,Wunderground v.1.15,2013-03-20 03:58:00,